Portada
METAR-TAF:

METAR-TAF

Aeroports :

Ibagué, Colòmbia

latitud: 04-26N, longitud: 075-09W, altitud: 928 m

Observació

L'informe es va fer fa 8 hores i 58 minuts, a les 02:00 UTC
Vent 4 kt del Oest
Temperatura 23°C
Humitat 83%
Pressió 1019 hPa
Visibilitat 10 km o més
Núvols disperses a una alçada de 3000 ft
Cel ennuvolat a una alçada de 10000 ft

METAR: SKIB 170200Z 28004KT 9999 SCT030 BKN100 23/20 A3010

Hora: 05:58 (10:58 UTC)


TAF: manca

Observacions i pronòstics meteorològics de més de 4000 aeroports (METAR i TAF).

Les estacions disponibles són els punts grocs i vermells al mapa.

Posi el ratolí al punt desitjat per veure el nom de l'estació.

Feu clic per veure les observacions i els pronòstics meteorològics.

Per canviar el mapa: feu clic els botons verds amb una creu de color negre per apropar; al botó verd amb un guió per allunyar la imatge; o en les fletxes verdes per a mapes adjacents.


METAR-TAF: